createdAt,value
2018-10-18T00:00:37.764Z,14.44
2018-10-18T00:03:12.382Z,14.37
2018-10-18T00:05:53.367Z,14.30
2018-10-18T00:08:28.077Z,14.25
2018-10-18T00:11:03.049Z,14.20
2018-10-18T00:13:37.684Z,14.15
2018-10-18T00:16:12.537Z,14.12
2018-10-18T00:18:46.966Z,14.09
2018-10-18T00:21:21.688Z,14.07
2018-10-18T00:23:56.521Z,14.07
2018-10-18T00:26:38.356Z,14.05
2018-10-18T00:29:19.918Z,13.98
2018-10-18T00:32:09.299Z,13.96
2018-10-18T00:34:44.240Z,13.93
2018-10-18T00:37:19.187Z,13.96
2018-10-18T00:39:53.721Z,13.93
2018-10-18T00:42:28.370Z,13.84
2018-10-18T00:45:02.960Z,13.87
2018-10-18T00:47:37.539Z,13.85
2018-10-18T00:50:12.779Z,13.84
2018-10-18T00:52:47.739Z,13.77
2018-10-18T00:55:22.300Z,13.77
2018-10-18T00:57:56.993Z,13.74
2018-10-18T01:00:32.029Z,13.74
2018-10-18T01:03:06.510Z,13.72
2018-10-18T01:05:40.986Z,13.73
2018-10-18T01:08:15.527Z,13.78
2018-10-18T01:10:50.104Z,13.72
2018-10-18T01:13:25.235Z,13.69
2018-10-18T01:15:59.773Z,13.75
2018-10-18T01:18:34.480Z,13.80
2018-10-18T01:21:09.109Z,13.73
2018-10-18T01:23:43.985Z,13.73
2018-10-18T01:26:18.789Z,13.72
2018-10-18T01:28:53.340Z,13.74
2018-10-18T01:31:28.160Z,13.76
2018-10-18T01:34:02.992Z,13.70
2018-10-18T01:36:37.636Z,13.74
2018-10-18T01:39:12.278Z,13.83
2018-10-18T01:41:46.800Z,13.92
2018-10-18T01:44:21.489Z,13.94
2018-10-18T01:46:56.200Z,13.96
2018-10-18T01:49:30.754Z,13.92
2018-10-18T01:52:05.650Z,13.94
2018-10-18T01:54:47.776Z,13.98
2018-10-18T01:57:22.857Z,13.97
2018-10-18T01:59:57.472Z,13.98
2018-10-18T02:02:32.098Z,13.97
2018-10-18T02:05:10.557Z,13.95
2018-10-18T02:07:45.145Z,13.96
2018-10-18T02:10:19.757Z,13.97
2018-10-18T02:12:54.436Z,13.95
2018-10-18T02:15:29.399Z,13.98
2018-10-18T02:18:04.241Z,14.14
2018-10-18T02:20:39.005Z,14.15
2018-10-18T02:23:13.929Z,14.07
2018-10-18T02:25:48.595Z,14.10
2018-10-18T02:28:23.194Z,14.15
2018-10-18T02:30:58.093Z,14.01
2018-10-18T02:33:32.708Z,14.12
2018-10-18T02:36:27.092Z,14.23
2018-10-18T02:39:05.402Z,14.28
2018-10-18T02:41:40.020Z,14.26
2018-10-18T02:44:15.264Z,14.15
2018-10-18T02:46:50.330Z,14.24
2018-10-18T02:49:24.852Z,14.20
2018-10-18T02:52:02.364Z,14.17
2018-10-18T02:54:42.359Z,14.19
2018-10-18T02:57:17.161Z,14.15
2018-10-18T02:59:51.796Z,14.19
2018-10-18T03:02:42.605Z,14.23
2018-10-18T03:05:17.324Z,14.22
2018-10-18T03:07:52.363Z,14.22
2018-10-18T03:10:27.737Z,14.22
2018-10-18T03:13:02.416Z,14.06
2018-10-18T03:15:44.200Z,14.07
2018-10-18T03:18:30.242Z,14.12
2018-10-18T03:21:04.946Z,14.05
2018-10-18T03:23:43.228Z,14.02
2018-10-18T03:26:23.285Z,14.04
2018-10-18T03:28:57.833Z,13.98
2018-10-18T03:31:33.546Z,13.92
2018-10-18T03:37:07.636Z,13.90
2018-10-18T03:39:42.603Z,13.83
2018-10-18T03:42:33.505Z,13.78
2018-10-18T03:45:08.672Z,13.83
2018-10-18T03:48:02.183Z,13.77
2018-10-18T03:50:37.117Z,13.73
2018-10-18T03:53:17.833Z,13.69
2018-10-18T03:55:52.477Z,13.62
2018-10-18T03:58:30.392Z,13.61
2018-10-18T04:01:12.541Z,13.73
2018-10-18T04:03:47.103Z,13.78
2018-10-18T04:06:22.117Z,13.79
2018-10-18T04:08:56.489Z,13.81
2018-10-18T04:11:31.772Z,13.79
2018-10-18T04:14:07.121Z,13.79
2018-10-18T04:16:41.864Z,13.77
2018-10-18T04:19:17.728Z,13.74
2018-10-18T04:21:52.741Z,13.75
2018-10-18T04:24:27.574Z,13.82
2018-10-18T04:27:02.288Z,13.80
2018-10-18T04:29:36.956Z,13.80
2018-10-18T04:32:11.501Z,13.71
2018-10-18T04:34:46.381Z,13.60
2018-10-18T04:37:37.836Z,13.58
2018-10-18T04:40:12.740Z,13.54
2018-10-18T04:42:47.644Z,13.52
2018-10-18T04:45:22.977Z,13.47
2018-10-18T04:47:58.131Z,13.44
2018-10-18T04:50:32.468Z,13.40
2018-10-18T04:53:07.139Z,13.32
2018-10-18T04:55:41.753Z,13.29
2018-10-18T04:58:16.440Z,13.30
2018-10-18T05:00:50.956Z,13.30
2018-10-18T05:03:25.835Z,13.37
2018-10-18T05:06:01.953Z,13.35
2018-10-18T05:08:36.400Z,13.35
2018-10-18T05:11:18.650Z,13.29
2018-10-18T05:13:55.193Z,13.20
2018-10-18T05:16:30.016Z,13.23
2018-10-18T05:19:05.093Z,13.19
2018-10-18T05:21:39.625Z,13.15
2018-10-18T05:24:14.084Z,13.20
2018-10-18T05:26:48.720Z,13.20
2018-10-18T05:29:23.604Z,13.29
2018-10-18T05:31:58.437Z,13.32
2018-10-18T05:34:33.168Z,13.36
2018-10-18T05:37:07.753Z,13.32
2018-10-18T05:39:42.398Z,13.32
2018-10-18T05:42:17.329Z,13.32
2018-10-18T05:44:52.315Z,13.29
2018-10-18T05:47:26.882Z,13.24
2018-10-18T05:50:01.753Z,13.23
2018-10-18T05:52:36.158Z,13.31
2018-10-18T05:55:11.820Z,13.26
2018-10-18T05:57:46.706Z,13.27
2018-10-18T06:00:21.614Z,13.26
2018-10-18T06:02:56.216Z,13.27
2018-10-18T06:05:31.143Z,13.21
2018-10-18T06:08:05.832Z,13.26
2018-10-18T06:10:51.569Z,13.24
2018-10-18T06:13:26.090Z,13.25
2018-10-18T06:16:00.728Z,13.33
2018-10-18T06:18:35.350Z,13.33
2018-10-18T06:21:09.987Z,13.42
2018-10-18T06:23:45.273Z,13.39
2018-10-18T06:26:20.409Z,13.13
2018-10-18T06:28:55.524Z,13.47
2018-10-18T06:31:30.343Z,13.47
2018-10-18T06:34:05.281Z,13.61
2018-10-18T06:36:39.819Z,13.70
2018-10-18T06:39:14.455Z,13.76
2018-10-18T06:41:48.833Z,13.82
2018-10-18T06:44:23.541Z,13.85
2018-10-18T06:46:58.934Z,13.92
2018-10-18T06:49:33.691Z,13.96
2018-10-18T06:52:08.316Z,14.11
2018-10-18T06:54:42.960Z,14.25
2018-10-18T06:57:17.523Z,14.09
2018-10-18T06:59:52.476Z,14.21
2018-10-18T07:02:27.331Z,14.11
2018-10-18T07:05:01.876Z,14.22
2018-10-18T07:07:37.146Z,14.30
2018-10-18T07:10:11.847Z,14.40
2018-10-18T07:12:46.488Z,14.57
2018-10-18T07:15:34.966Z,14.80
2018-10-18T07:18:09.670Z,15.03
2018-10-18T07:20:44.193Z,15.59
2018-10-18T07:23:18.813Z,16.49
2018-10-18T07:25:53.644Z,16.96
2018-10-18T07:28:28.183Z,16.84
2018-10-18T07:31:02.782Z,16.57
2018-10-18T07:33:37.481Z,16.82
2018-10-18T07:36:12.343Z,16.24
2018-10-18T07:41:23.652Z,16.04
2018-10-18T07:43:58.714Z,15.98
2018-10-18T07:46:34.635Z,16.12
2018-10-18T07:49:10.252Z,16.27
2018-10-18T07:51:44.843Z,16.11
2018-10-18T07:54:19.979Z,16.24
2018-10-18T07:56:54.520Z,16.12
2018-10-18T07:59:29.396Z,16.14
2018-10-18T08:02:04.304Z,16.27
2018-10-18T08:04:38.937Z,15.87
2018-10-18T08:07:13.688Z,15.62
2018-10-18T08:09:48.093Z,15.74
2018-10-18T08:12:22.664Z,15.75
2018-10-18T08:14:57.256Z,15.88
2018-10-18T08:17:32.049Z,16.31
2018-10-18T08:20:07.364Z,16.79
2018-10-18T08:22:42.657Z,16.75
2018-10-18T08:25:17.255Z,16.88
2018-10-18T08:27:51.765Z,16.90
2018-10-18T08:30:26.403Z,16.76
2018-10-18T08:33:01.433Z,16.65
2018-10-18T08:35:35.990Z,16.38
2018-10-18T08:38:10.605Z,16.59
2018-10-18T08:40:45.058Z,16.48
2018-10-18T08:43:20.403Z,16.67
2018-10-18T08:45:55.202Z,16.30
2018-10-18T08:48:29.741Z,16.29
2018-10-18T08:51:04.318Z,16.22
2018-10-18T08:53:38.736Z,16.15
2018-10-18T08:56:13.822Z,16.11
2018-10-18T08:58:48.488Z,15.99
2018-10-18T09:01:22.996Z,15.96
2018-10-18T09:03:57.537Z,15.72
2018-10-18T09:06:32.051Z,15.70
2018-10-18T09:09:08.068Z,15.80
2018-10-18T09:11:42.550Z,15.65
2018-10-18T09:14:17.847Z,15.99
2018-10-18T09:16:52.376Z,16.23
2018-10-18T09:19:27.064Z,16.13
2018-10-18T09:22:01.701Z,16.36
2018-10-18T09:24:36.144Z,16.53
2018-10-18T09:27:10.682Z,16.55
2018-10-18T09:29:45.945Z,16.50
2018-10-18T09:32:20.816Z,16.63
2018-10-18T09:34:55.320Z,16.54
2018-10-18T09:37:30.176Z,16.40
2018-10-18T09:40:04.936Z,16.40
2018-10-18T09:42:39.864Z,16.45
2018-10-18T09:45:14.571Z,16.70
2018-10-18T09:47:49.546Z,17.15
2018-10-18T09:50:24.590Z,17.45
2018-10-18T09:52:59.439Z,17.35
2018-10-18T09:55:33.707Z,17.56
2018-10-18T09:58:08.819Z,17.32
2018-10-18T10:00:48.761Z,17.46
2018-10-18T10:03:23.388Z,16.89
2018-10-18T10:05:58.203Z,16.66
2018-10-18T10:08:46.190Z,16.91
2018-10-18T10:11:20.815Z,16.96
2018-10-18T10:13:55.196Z,17.04
2018-10-18T10:16:29.739Z,17.24
2018-10-18T10:19:11.380Z,17.03
2018-10-18T10:21:46.388Z,17.08
2018-10-18T10:24:21.399Z,17.20
2018-10-18T10:26:55.840Z,17.01
2018-10-18T10:29:30.697Z,16.98
2018-10-18T10:32:05.549Z,17.21
2018-10-18T10:34:40.496Z,17.15
2018-10-18T10:37:15.106Z,17.13
2018-10-18T10:39:49.632Z,17.31
2018-10-18T10:42:24.141Z,17.47
2018-10-18T10:44:59.218Z,17.33
2018-10-18T10:47:33.812Z,17.16
2018-10-18T10:50:09.180Z,16.99
2018-10-18T10:52:43.932Z,17.22
2018-10-18T10:55:18.591Z,17.50
2018-10-18T10:57:53.139Z,17.54
2018-10-18T11:01:05.591Z,17.49
2018-10-18T11:03:41.100Z,17.54
2018-10-18T11:06:15.825Z,17.68
2018-10-18T11:08:50.479Z,17.09
2018-10-18T11:11:25.420Z,17.10
2018-10-18T11:14:00.407Z,17.45
2018-10-18T11:16:35.067Z,17.87
2018-10-18T11:19:09.825Z,17.88
2018-10-18T11:21:44.714Z,18.09
2018-10-18T11:24:19.561Z,17.73
2018-10-18T11:26:53.996Z,17.75
2018-10-18T11:29:28.524Z,17.50
2018-10-18T11:32:03.129Z,17.77
2018-10-18T11:34:37.553Z,17.81
2018-10-18T11:37:12.149Z,17.89
2018-10-18T11:39:46.937Z,17.80
2018-10-18T11:42:24.055Z,17.75
2018-10-18T11:45:12.153Z,17.74
2018-10-18T11:47:53.184Z,17.55
2018-10-18T11:50:28.991Z,17.42
2018-10-18T11:53:03.694Z,17.60
2018-10-18T11:55:38.795Z,17.35
2018-10-18T12:01:14.887Z,17.28
2018-10-18T12:03:50.452Z,17.46
2018-10-18T12:06:24.929Z,17.58
2018-10-18T12:09:13.015Z,17.32
2018-10-18T12:11:47.587Z,17.28
2018-10-18T12:14:22.157Z,17.19
2018-10-18T12:16:56.714Z,17.43
2018-10-18T12:19:31.777Z,17.67
2018-10-18T12:22:08.415Z,17.85
2018-10-18T12:24:43.342Z,17.75
2018-10-18T12:27:18.380Z,17.92
2018-10-18T12:29:53.576Z,17.87
2018-10-18T12:32:28.040Z,17.83
2018-10-18T12:35:02.626Z,18.12
2018-10-18T12:37:37.290Z,17.97
2018-10-18T12:40:11.811Z,18.10
2018-10-18T12:42:56.451Z,18.00
2018-10-18T12:45:31.249Z,17.87
2018-10-18T12:48:06.631Z,17.97
2018-10-18T12:50:41.386Z,18.26
2018-10-18T12:53:16.208Z,18.16
2018-10-18T12:55:51.690Z,18.23
2018-10-18T12:58:26.067Z,17.97
2018-10-18T13:01:00.712Z,17.62
2018-10-18T13:03:35.239Z,17.41
2018-10-18T13:06:10.256Z,17.36
2018-10-18T13:08:44.785Z,17.36
2018-10-18T13:11:19.727Z,17.50
2018-10-18T13:13:54.324Z,17.81
2018-10-18T13:16:28.756Z,17.58
2018-10-18T13:19:10.928Z,17.67
2018-10-18T13:21:46.332Z,17.94
2018-10-18T13:24:21.200Z,17.97
2018-10-18T13:30:00.669Z,18.05
2018-10-18T13:32:35.277Z,17.86
2018-10-18T13:35:11.999Z,17.83
2018-10-18T13:37:46.477Z,17.66
2018-10-18T13:40:33.452Z,17.59
2018-10-18T13:43:07.828Z,17.60
2018-10-18T13:45:49.432Z,17.63
2018-10-18T13:48:23.858Z,17.50
2018-10-18T13:50:58.489Z,17.40
2018-10-18T13:53:38.851Z,17.19
2018-10-18T13:56:13.808Z,17.32
2018-10-18T13:58:48.254Z,17.50
2018-10-18T14:01:23.931Z,17.44
2018-10-18T14:03:59.832Z,17.23
2018-10-18T14:06:34.389Z,17.23
2018-10-18T14:09:08.864Z,17.16
2018-10-18T14:11:43.536Z,17.38
2018-10-18T14:14:18.465Z,17.37
2018-10-18T14:16:53.033Z,17.46
2018-10-18T14:19:27.725Z,17.66
2018-10-18T14:22:02.494Z,17.59
2018-10-18T14:24:37.188Z,17.45
2018-10-18T14:27:11.892Z,17.49
2018-10-18T14:29:47.494Z,17.39
2018-10-18T14:32:22.076Z,17.21
2018-10-18T14:34:57.003Z,17.05
2018-10-18T14:37:44.415Z,16.89
2018-10-18T14:40:19.069Z,16.74
2018-10-18T14:42:53.745Z,16.56
2018-10-18T14:45:28.313Z,16.64
2018-10-18T14:48:02.956Z,16.61
2018-10-18T14:50:37.535Z,16.48
2018-10-18T14:53:12.310Z,16.45
2018-10-18T14:55:48.133Z,16.38
2018-10-18T14:58:22.621Z,16.32
2018-10-18T15:01:00.718Z,16.31
2018-10-18T15:03:35.408Z,16.25
2018-10-18T15:06:09.931Z,16.35
2018-10-18T15:08:44.468Z,16.44
2018-10-18T15:11:19.004Z,16.62
2018-10-18T15:13:54.710Z,16.75
2018-10-18T15:16:29.168Z,16.73
2018-10-18T15:19:03.928Z,16.78
2018-10-18T15:21:38.536Z,16.85
2018-10-18T15:24:13.193Z,16.78
2018-10-18T15:26:47.812Z,16.70
2018-10-18T15:29:22.262Z,16.61
2018-10-18T15:31:56.797Z,16.58
2018-10-18T15:34:31.372Z,16.56
2018-10-18T15:37:06.814Z,16.42
2018-10-18T15:39:41.634Z,16.32
2018-10-18T15:42:16.078Z,16.24
2018-10-18T15:44:51.445Z,16.19
2018-10-18T15:47:27.245Z,16.20
2018-10-18T15:50:03.199Z,16.17
2018-10-18T15:52:38.313Z,16.12
2018-10-18T15:55:13.281Z,16.07
2018-10-18T15:57:48.364Z,15.99
2018-10-18T16:00:23.477Z,16.08
2018-10-18T16:02:58.048Z,16.09
2018-10-18T16:05:32.679Z,16.04
2018-10-18T16:08:07.194Z,16.07
2018-10-18T16:10:42.523Z,16.08
2018-10-18T16:13:17.284Z,16.02
2018-10-18T16:15:51.894Z,15.97
2018-10-18T16:18:26.556Z,15.88
2018-10-18T16:21:01.185Z,15.78
2018-10-18T16:23:36.045Z,15.72
2018-10-18T16:26:11.538Z,15.75
2018-10-18T16:28:46.144Z,15.65
2018-10-18T16:31:22.029Z,15.68
2018-10-18T16:33:59.742Z,15.54
2018-10-18T16:36:34.168Z,15.49
2018-10-18T16:39:10.724Z,15.54
2018-10-18T16:42:00.094Z,15.42
2018-10-18T16:44:34.957Z,15.36
2018-10-18T16:47:09.368Z,15.28
2018-10-18T16:49:44.032Z,15.12
2018-10-18T16:52:18.703Z,15.06
2018-10-18T16:54:53.368Z,15.16
2018-10-18T16:57:27.897Z,15.16
2018-10-18T17:00:02.410Z,14.98
2018-10-18T17:02:36.963Z,15.10
2018-10-18T17:05:11.628Z,15.07
2018-10-18T17:07:46.529Z,15.07
2018-10-18T17:10:21.169Z,15.02
2018-10-18T17:12:55.698Z,14.94
2018-10-18T17:15:30.305Z,14.89
2018-10-18T17:18:04.889Z,14.83
2018-10-18T17:20:39.680Z,14.88
2018-10-18T17:23:14.228Z,14.80
2018-10-18T17:25:48.738Z,14.64
2018-10-18T17:28:24.868Z,14.69
2018-10-18T17:30:59.769Z,14.56
2018-10-18T17:33:34.544Z,14.59
2018-10-18T17:36:09.231Z,14.62
2018-10-18T17:38:48.368Z,14.68
2018-10-18T17:41:22.823Z,14.71
2018-10-18T17:43:57.745Z,14.61
2018-10-18T17:46:32.056Z,14.65
2018-10-18T17:49:06.769Z,14.51
2018-10-18T17:51:41.297Z,14.66
2018-10-18T17:54:17.248Z,14.73
2018-10-18T17:56:51.868Z,14.66
2018-10-18T17:59:26.670Z,14.57
2018-10-18T18:02:02.008Z,14.67
2018-10-18T18:04:36.692Z,14.59
2018-10-18T18:07:11.520Z,14.51
2018-10-18T18:09:46.811Z,14.55
2018-10-18T18:12:21.797Z,14.64
2018-10-18T18:14:56.782Z,14.56
2018-10-18T18:17:31.523Z,14.49
2018-10-18T18:20:07.408Z,14.56
2018-10-18T18:22:42.054Z,14.46
2018-10-18T18:25:16.558Z,14.56
2018-10-18T18:27:51.397Z,14.38
2018-10-18T18:30:26.200Z,14.41
2018-10-18T18:33:04.199Z,14.42
2018-10-18T18:35:38.768Z,14.46
2018-10-18T18:38:13.436Z,14.37
2018-10-18T18:40:47.898Z,14.33
2018-10-18T18:43:22.814Z,14.27
2018-10-18T18:45:57.488Z,14.18
2018-10-18T18:48:31.980Z,14.14
2018-10-18T18:51:06.691Z,14.11
2018-10-18T18:53:41.502Z,14.05
2018-10-18T18:56:16.037Z,13.94
2018-10-18T18:58:50.426Z,13.83
2018-10-18T19:01:25.059Z,13.65
2018-10-18T19:03:59.576Z,13.63
2018-10-18T19:06:34.194Z,13.62
2018-10-18T19:09:09.449Z,13.59
2018-10-18T19:11:43.863Z,13.70
2018-10-18T19:14:20.783Z,13.57
2018-10-18T19:16:55.704Z,13.51
2018-10-18T19:19:30.088Z,13.59
2018-10-18T19:22:05.263Z,13.51
2018-10-18T19:24:40.021Z,13.52
2018-10-18T19:27:14.780Z,13.51
2018-10-18T19:29:49.284Z,13.49
2018-10-18T19:32:23.824Z,13.61
2018-10-18T19:34:58.756Z,13.46
2018-10-18T19:37:37.061Z,13.61
2018-10-18T19:40:11.641Z,13.50
2018-10-18T19:42:46.183Z,13.55
2018-10-18T19:45:20.796Z,13.62
2018-10-18T19:47:55.369Z,13.62
2018-10-18T19:50:29.972Z,13.58
2018-10-18T19:53:04.683Z,13.58
2018-10-18T19:55:39.302Z,13.60
2018-10-18T19:58:14.186Z,13.61
2018-10-18T20:00:48.793Z,13.60
2018-10-18T20:03:23.333Z,13.58
2018-10-18T20:05:57.844Z,13.55
2018-10-18T20:08:32.285Z,13.47
2018-10-18T20:11:07.178Z,13.60
2018-10-18T20:13:41.856Z,13.53
2018-10-18T20:16:16.377Z,13.58
2018-10-18T20:18:51.332Z,13.63
2018-10-18T20:21:26.232Z,13.68
2018-10-18T20:24:01.340Z,13.66
2018-10-18T20:26:35.951Z,13.60
2018-10-18T20:29:10.852Z,13.63
2018-10-18T20:31:45.368Z,13.62
2018-10-18T20:34:20.113Z,13.59
2018-10-18T20:36:54.616Z,13.60
2018-10-18T20:39:36.794Z,13.54
2018-10-18T20:42:11.155Z,13.56
2018-10-18T20:44:45.587Z,13.53
2018-10-18T20:47:20.452Z,13.56
2018-10-18T20:49:55.123Z,13.52
2018-10-18T20:52:29.594Z,13.61
2018-10-18T20:55:04.544Z,13.58
2018-10-18T20:57:38.952Z,13.59
2018-10-18T21:00:13.912Z,13.56
2018-10-18T21:02:48.353Z,13.61
2018-10-18T21:05:23.006Z,13.58
2018-10-18T21:07:57.472Z,13.53
2018-10-18T21:10:31.952Z,13.39
2018-10-18T21:13:06.644Z,13.43
2018-10-18T21:15:41.160Z,13.49
2018-10-18T21:18:15.620Z,13.33
2018-10-18T21:20:49.992Z,13.38
2018-10-18T21:23:24.855Z,13.49
2018-10-18T21:25:59.321Z,13.46
2018-10-18T21:28:33.983Z,13.50
2018-10-18T21:31:08.556Z,13.31
2018-10-18T21:33:43.097Z,13.20
2018-10-18T21:36:17.784Z,13.22
2018-10-18T21:38:52.472Z,13.20
2018-10-18T21:41:27.107Z,13.21
2018-10-18T21:44:02.324Z,13.17
2018-10-18T21:46:37.812Z,13.01
2018-10-18T21:49:30.460Z,13.11
2018-10-18T21:52:05.182Z,13.14
2018-10-18T21:54:39.624Z,13.13
2018-10-18T21:57:14.302Z,13.12
2018-10-18T21:59:48.841Z,13.19
2018-10-18T22:02:23.460Z,13.08
2018-10-18T22:04:58.176Z,13.10
2018-10-18T22:07:33.048Z,13.16
2018-10-18T22:10:07.512Z,13.02
2018-10-18T22:12:42.318Z,13.09
2018-10-18T22:15:16.808Z,13.10
2018-10-18T22:17:51.706Z,13.15
2018-10-18T22:20:26.332Z,13.17
2018-10-18T22:23:00.754Z,13.17
2018-10-18T22:25:35.259Z,13.12
2018-10-18T22:28:09.905Z,13.15
2018-10-18T22:30:44.542Z,13.14
2018-10-18T22:33:18.975Z,13.18
2018-10-18T22:35:53.748Z,13.08
2018-10-18T22:38:28.884Z,13.26
2018-10-18T22:41:08.412Z,13.31
2018-10-18T22:43:42.952Z,13.16
2018-10-18T22:46:17.353Z,13.20
2018-10-18T22:48:52.024Z,13.19
2018-10-18T22:51:26.766Z,13.20
2018-10-18T22:54:01.248Z,13.34
2018-10-18T22:56:36.196Z,13.25
2018-10-18T22:59:10.830Z,13.28
2018-10-18T23:01:45.456Z,13.14
2018-10-18T23:04:20.105Z,13.27
2018-10-18T23:06:54.740Z,13.19
2018-10-18T23:09:29.396Z,13.30
2018-10-18T23:12:05.108Z,13.20
2018-10-18T23:14:39.592Z,13.26
2018-10-18T23:17:14.238Z,13.28
2018-10-18T23:19:48.850Z,13.29
2018-10-18T23:22:23.423Z,13.24
2018-10-18T23:24:58.219Z,13.20
2018-10-18T23:27:32.937Z,12.98
2018-10-18T23:30:08.333Z,13.06
2018-10-18T23:32:43.081Z,12.99
2018-10-18T23:35:17.729Z,12.93
2018-10-18T23:37:52.441Z,12.86
2018-10-18T23:40:27.031Z,12.85
2018-10-18T23:43:01.440Z,12.40
2018-10-18T23:45:36.087Z,12.39
2018-10-18T23:48:10.683Z,12.40
2018-10-18T23:50:45.134Z,12.30
2018-10-18T23:53:19.640Z,12.34
2018-10-18T23:55:54.220Z,12.35
2018-10-18T23:58:28.616Z,12.31
